Plymouth, Ohio
Current Conditions -  °F | °C
As of 4:52 AM on Saturday 01 Nov 2014 (Local Time) from KMFD Reporting Station
Overcast Overcast  
Wind Chill: 29°   Ceiling: 700
Heat Index: 38°   Visibility: 10mi
Dew Point: 36°   Wind: 15mph
Humidity: 93%   Direction: 350°N
Pressure: 29.98"   Gusts: 29mph
Location:  41°N, 82.67°W
Report Text: KMFD 010852Z AUTO 35013G25KT 10SM OVC007 03/02 A2998 RMK AO2 PK WND 01028/0812 RAE52 SLP161 P0002 60007 T00330022 53015
Loading
Personal Weather Stations






























Interactive Weather Map
Tropical Storm Tracking
New forecast layout! Learn more

10-Day Weather Forecast

Advertisements
Track Severe Weather on mobile